Terminal Aerodrome Forecast
Issued by NWS Louisville, KY

Home | Current Version | Previous Version | Text Only | Print | Product List | Glossary On
Versions: 1 2 3 4 5 6 7 8 9 10 11 12
000
FTUS43 KLMK 281700
TAFBWG
TAF
KBWG 281740Z 2818/2918 32010G15KT P6SM BKN040
     FM290100 VRB04KT P6SM FEW250
     FM291300 36010KT P6SM SCT040=

USA.gov is the U.S. government's official web portal to all federal, state and local government web resources and services.